createdAt,value
2022-08-09T00:00:00.417Z,77.13
2022-08-09T00:00:57.269Z,77.12
2022-08-09T00:01:57.968Z,77.31
2022-08-09T00:02:58.297Z,78.00
2022-08-09T00:04:06.346Z,78.52
2022-08-09T00:05:03.437Z,79.07
2022-08-09T00:06:19.655Z,79.33
2022-08-09T00:06:59.346Z,78.91
2022-08-09T00:08:00.063Z,78.75
2022-08-09T00:09:00.502Z,78.91
2022-08-09T00:10:01.722Z,81.71
2022-08-09T00:11:05.813Z,80.60
2022-08-09T00:12:03.473Z,80.60
2022-08-09T00:13:01.659Z,80.86
2022-08-09T00:14:01.788Z,80.33
2022-08-09T00:15:06.967Z,79.44
2022-08-09T00:16:02.399Z,80.01
2022-08-09T00:17:02.037Z,80.87
2022-08-09T00:18:04.686Z,80.85
2022-08-09T00:19:02.779Z,80.28
2022-08-09T00:20:03.584Z,80.27
2022-08-09T00:21:03.670Z,81.07
2022-08-09T00:22:04.293Z,81.22
2022-08-09T00:23:08.353Z,80.13
2022-08-09T00:24:04.871Z,80.21
2022-08-09T00:25:08.421Z,80.82
2022-08-09T00:26:05.531Z,81.01
2022-08-09T00:27:06.296Z,80.84
2022-08-09T00:28:06.419Z,81.23
2022-08-09T00:29:12.174Z,80.88
2022-08-09T00:30:23.566Z,80.59
2022-08-09T00:30:25.983Z,81.12
2022-08-09T00:31:58.111Z,81.11
2022-08-09T00:32:25.679Z,81.49
2022-08-09T00:33:16.853Z,81.25
2022-08-09T00:34:19.336Z,82.20
2022-08-09T00:35:17.806Z,81.14
2022-08-09T00:36:19.132Z,81.46
2022-08-09T00:37:18.334Z,81.28
2022-08-09T00:38:21.441Z,81.53
2022-08-09T00:40:13.967Z,81.61
2022-08-09T00:40:19.856Z,81.69
2022-08-09T00:44:16.790Z,82.02
2022-08-09T00:44:26.076Z,82.18
2022-08-09T00:44:27.112Z,82.76
2022-08-09T00:44:27.351Z,82.99
2022-08-09T00:45:21.716Z,83.49
2022-08-09T00:46:55.226Z,83.70
2022-08-09T00:47:24.947Z,83.07
2022-08-09T00:48:22.979Z,83.88
2022-08-09T00:49:23.295Z,83.82
2022-08-09T00:50:25.215Z,83.90
2022-08-09T00:51:24.559Z,83.09
2022-08-09T00:52:30.225Z,83.59
2022-08-09T00:53:25.289Z,84.03
2022-08-09T00:54:35.159Z,83.52
2022-08-09T00:56:04.120Z,82.85
2022-08-09T00:56:26.192Z,82.72
2022-08-09T00:57:34.874Z,82.57
2022-08-09T00:58:27.809Z,83.04
2022-08-09T00:59:41.253Z,83.25
2022-08-09T00:59:41.649Z,83.65
2022-08-09T01:00:35.852Z,83.27
2022-08-09T01:01:44.669Z,82.99
2022-08-09T01:02:36.822Z,83.22
2022-08-09T01:03:40.673Z,84.73
2022-08-09T01:04:37.835Z,84.71
2022-08-09T01:05:50.672Z,85.41
2022-08-09T01:06:54.215Z,84.99
2022-08-09T01:08:00.639Z,84.12
2022-08-09T01:08:38.870Z,84.30
2022-08-09T01:09:39.149Z,84.22
2022-08-09T01:10:39.193Z,84.61
2022-08-09T01:11:40.150Z,85.85
2022-08-09T01:12:40.292Z,85.85
2022-08-09T01:13:41.934Z,88.75
2022-08-09T01:14:40.364Z,90.76
2022-08-09T01:15:52.256Z,93.47
2022-08-09T01:16:40.869Z,93.43
2022-08-09T01:17:40.944Z,92.60
2022-08-09T01:18:41.006Z,92.39
2022-08-09T01:19:51.640Z,91.73
2022-08-09T01:20:41.393Z,92.15
2022-08-09T01:21:45.027Z,92.51
2022-08-09T01:22:41.643Z,91.80
2022-08-09T01:24:03.632Z,92.28
2022-08-09T01:24:44.049Z,92.31
2022-08-09T01:25:49.024Z,92.55
2022-08-09T01:26:43.778Z,93.57
2022-08-09T01:27:44.678Z,95.08
2022-08-09T01:28:45.465Z,97.63
2022-08-09T01:29:55.730Z,99.11
2022-08-09T01:30:52.119Z,100.48
2022-08-09T01:30:54.853Z,102.19
2022-08-09T01:32:29.924Z,102.33
2022-08-09T01:32:55.807Z,103.72
2022-08-09T01:33:55.732Z,101.86
2022-08-09T01:34:57.638Z,97.55
2022-08-09T01:35:59.197Z,94.37
2022-08-09T01:36:58.223Z,92.37
2022-08-09T01:38:07.935Z,92.30
2022-08-09T01:38:59.381Z,91.58
2022-08-09T01:39:59.514Z,91.48
2022-08-09T01:41:02.941Z,90.71
2022-08-09T01:42:04.086Z,90.62
2022-08-09T01:43:01.598Z,90.56
2022-08-09T01:44:01.818Z,90.49
2022-08-09T01:45:03.508Z,91.21
2022-08-09T01:46:02.741Z,91.30
2022-08-09T01:47:03.327Z,91.38
2022-08-09T01:48:05.892Z,92.23
2022-08-09T01:49:09.521Z,93.18
2022-08-09T01:50:06.495Z,93.18
2022-08-09T01:51:04.362Z,91.96
2022-08-09T01:52:07.540Z,91.60
2022-08-09T01:53:19.349Z,91.42
2022-08-09T01:54:06.056Z,92.23
2022-08-09T01:55:08.045Z,93.34
2022-08-09T01:56:07.239Z,93.22
2022-08-09T01:57:08.086Z,93.14
2022-08-09T01:58:07.917Z,93.84
2022-08-09T01:59:08.752Z,94.38
2022-08-09T01:59:18.568Z,93.73
2022-08-09T02:00:35.939Z,93.68
2022-08-09T02:01:19.618Z,92.81
2022-08-09T02:02:19.811Z,91.79
2022-08-09T02:03:19.953Z,91.95
2022-08-09T02:04:21.524Z,92.33
2022-08-09T02:05:20.830Z,94.45
2022-08-09T02:06:21.745Z,93.17
2022-08-09T02:08:39.063Z,92.80
2022-08-09T02:08:39.296Z,92.93
2022-08-09T02:09:23.094Z,93.28
2022-08-09T02:10:29.687Z,93.77
2022-08-09T02:11:24.084Z,93.27
2022-08-09T02:12:25.515Z,92.97
2022-08-09T02:13:26.226Z,92.53
2022-08-09T02:14:26.677Z,93.65
2022-08-09T02:15:26.977Z,93.19
2022-08-09T02:16:33.857Z,93.57
2022-08-09T02:17:59.499Z,94.34
2022-08-09T02:18:27.663Z,93.15
2022-08-09T02:19:34.933Z,93.43
2022-08-09T02:20:32.851Z,93.55
2022-08-09T02:21:29.289Z,93.31
2022-08-09T02:22:31.717Z,93.85
2022-08-09T02:23:31.868Z,93.39
2022-08-09T02:24:30.784Z,93.62
2022-08-09T02:25:31.466Z,93.70
2022-08-09T02:26:32.319Z,93.88
2022-08-09T02:27:58.227Z,94.09
2022-08-09T02:28:32.780Z,94.89
2022-08-09T02:28:41.368Z,94.27
2022-08-09T02:29:41.646Z,94.20
2022-08-09T02:30:41.744Z,93.81
2022-08-09T02:31:42.258Z,93.74
2022-08-09T02:32:43.068Z,93.59
2022-08-09T02:34:06.789Z,95.22
2022-08-09T02:34:51.740Z,96.06
2022-08-09T02:36:02.072Z,95.52
2022-08-09T02:36:44.549Z,95.48
2022-08-09T02:37:46.437Z,95.41
2022-08-09T02:38:47.814Z,95.77
2022-08-09T02:39:49.876Z,95.47
2022-08-09T02:40:46.469Z,95.30
2022-08-09T02:41:46.679Z,95.28
2022-08-09T02:42:51.248Z,96.10
2022-08-09T02:43:54.859Z,95.68
2022-08-09T02:44:47.844Z,97.39
2022-08-09T02:45:49.197Z,97.42
2022-08-09T02:46:52.305Z,97.21
2022-08-09T02:47:58.853Z,97.71
2022-08-09T02:48:51.093Z,97.71
2022-08-09T02:50:01.255Z,97.39
2022-08-09T02:50:53.083Z,97.22
2022-08-09T02:51:50.216Z,98.09
2022-08-09T02:52:55.303Z,97.97
2022-08-09T02:53:59.697Z,98.10
2022-08-09T02:54:54.819Z,98.22
2022-08-09T02:55:58.403Z,97.99
2022-08-09T02:56:53.995Z,97.95
2022-08-09T02:57:02.112Z,97.68
2022-08-09T02:58:32.815Z,97.75
2022-08-09T02:59:03.376Z,98.05
2022-08-09T03:00:24.779Z,97.64
2022-08-09T03:01:04.396Z,97.78
2022-08-09T03:02:06.810Z,98.40
2022-08-09T03:03:04.455Z,99.44
2022-08-09T03:04:18.425Z,99.74
2022-08-09T03:05:05.735Z,98.82
2022-08-09T03:06:05.929Z,98.29
2022-08-09T03:07:12.399Z,99.41
2022-08-09T03:08:06.662Z,99.69
2022-08-09T03:09:06.963Z,100.53
2022-08-09T03:10:08.054Z,99.83
2022-08-09T03:11:10.226Z,100.05
2022-08-09T03:12:11.323Z,100.62
2022-08-09T03:13:08.607Z,101.02
2022-08-09T03:14:08.449Z,101.77
2022-08-09T03:15:09.160Z,101.17
2022-08-09T03:16:09.922Z,102.27
2022-08-09T03:17:20.495Z,101.68
2022-08-09T03:18:10.837Z,100.78
2022-08-09T03:19:14.348Z,100.52
2022-08-09T03:20:11.859Z,100.30
2022-08-09T03:21:12.146Z,101.29
2022-08-09T03:22:19.759Z,101.78
2022-08-09T03:23:15.139Z,101.36
2022-08-09T03:24:14.095Z,100.96
2022-08-09T03:25:26.487Z,101.25
2022-08-09T03:26:15.089Z,101.18
2022-08-09T03:27:17.201Z,101.70
2022-08-09T03:28:16.368Z,101.50
2022-08-09T03:28:28.099Z,102.03
2022-08-09T03:29:28.631Z,101.95
2022-08-09T03:30:33.499Z,102.42
2022-08-09T03:31:29.010Z,101.67
2022-08-09T03:32:29.849Z,102.42
2022-08-09T03:33:53.281Z,102.31
2022-08-09T03:34:30.905Z,102.56
2022-08-09T03:36:11.465Z,102.64
2022-08-09T03:36:34.890Z,103.16
2022-08-09T03:37:54.377Z,102.87
2022-08-09T03:38:33.551Z,104.52
2022-08-09T03:39:37.792Z,105.12
2022-08-09T03:40:34.838Z,105.11
2022-08-09T03:41:48.318Z,104.31
2022-08-09T03:42:35.099Z,104.87
2022-08-09T03:43:36.567Z,105.28
2022-08-09T03:44:35.635Z,104.59
2022-08-09T03:46:04.087Z,104.96
2022-08-09T03:46:36.083Z,105.69
2022-08-09T03:47:41.859Z,105.29
2022-08-09T03:48:36.643Z,105.35
2022-08-09T03:49:36.961Z,104.45
2022-08-09T03:50:37.725Z,105.28
2022-08-09T03:51:43.960Z,105.90
2022-08-09T03:52:38.612Z,105.20
2022-08-09T03:53:38.668Z,105.93
2022-08-09T03:54:39.005Z,106.32
2022-08-09T03:55:42.443Z,106.28
2022-08-09T03:56:41.246Z,106.47
2022-08-09T03:57:44.481Z,108.09
2022-08-09T03:58:41.242Z,109.00
2022-08-09T03:59:53.005Z,109.00
2022-08-09T04:00:42.129Z,109.00
2022-08-09T04:00:50.795Z,109.00
2022-08-09T04:01:51.305Z,109.00
2022-08-09T04:02:52.859Z,109.00
2022-08-09T04:04:01.221Z,108.04
2022-08-09T04:04:52.669Z,108.28
2022-08-09T04:05:52.913Z,108.01
2022-08-09T04:06:53.701Z,107.65
2022-08-09T04:07:57.318Z,107.71
2022-08-09T04:08:55.356Z,107.52
2022-08-09T04:09:56.836Z,107.45
2022-08-09T04:11:01.323Z,107.64
2022-08-09T04:11:56.943Z,107.34
2022-08-09T04:12:57.770Z,107.81
2022-08-09T04:14:53.021Z,108.45
2022-08-09T04:15:02.075Z,108.30
2022-08-09T04:16:20.293Z,108.53
2022-08-09T04:16:58.681Z,108.49
2022-08-09T04:17:59.689Z,108.31
2022-08-09T04:18:59.763Z,108.59
2022-08-09T04:20:02.618Z,108.61
2022-08-09T04:20:59.716Z,108.32
2022-08-09T04:21:59.845Z,108.10
2022-08-09T04:23:02.047Z,107.95
2022-08-09T04:24:00.433Z,107.75
2022-08-09T04:25:03.049Z,107.30
2022-08-09T04:26:01.462Z,106.39
2022-08-09T04:27:01.721Z,107.65
2022-08-09T04:28:03.757Z,108.91
2022-08-09T04:28:14.955Z,109.00
2022-08-09T04:29:15.261Z,109.00
2022-08-09T04:30:15.427Z,109.00
2022-08-09T04:31:17.012Z,109.00
2022-08-09T04:32:16.513Z,109.00
2022-08-09T04:33:16.553Z,108.71
2022-08-09T04:34:19.022Z,108.42
2022-08-09T04:35:17.852Z,108.08
2022-08-09T04:36:19.364Z,108.83
2022-08-09T04:37:18.518Z,108.21
2022-08-09T04:38:18.635Z,107.65
2022-08-09T04:39:19.144Z,107.79
2022-08-09T04:40:35.903Z,106.33
2022-08-09T04:41:23.675Z,107.04
2022-08-09T04:42:21.244Z,107.63
2022-08-09T04:43:20.386Z,106.36
2022-08-09T04:44:20.947Z,107.63
2022-08-09T04:45:22.799Z,108.39
2022-08-09T04:46:56.833Z,107.50
2022-08-09T04:47:22.350Z,106.73
2022-08-09T04:48:33.363Z,107.38
2022-08-09T04:49:40.149Z,107.63
2022-08-09T04:50:24.040Z,107.49
2022-08-09T04:51:24.111Z,108.86
2022-08-09T04:52:26.378Z,108.09
2022-08-09T04:53:24.931Z,108.80
2022-08-09T04:54:25.328Z,108.27
2022-08-09T04:55:27.089Z,107.66
2022-08-09T04:56:26.445Z,107.73
2022-08-09T04:56:35.129Z,107.58
2022-08-09T04:57:59.411Z,107.66
2022-08-09T04:58:36.100Z,108.43
2022-08-09T04:59:37.204Z,107.88
2022-08-09T05:00:37.444Z,108.26
2022-08-09T05:01:38.070Z,108.51
2022-08-09T05:02:38.436Z,108.91
2022-08-09T05:03:42.838Z,108.92
2022-08-09T05:04:38.660Z,108.58
2022-08-09T05:05:52.250Z,108.58
2022-08-09T05:06:38.897Z,108.95
2022-08-09T05:07:39.040Z,108.95
2022-08-09T05:08:39.295Z,109.00
2022-08-09T05:09:48.764Z,108.72
2022-08-09T05:10:39.777Z,109.00
2022-08-09T05:11:40.049Z,109.00
2022-08-09T05:12:40.391Z,109.00
2022-08-09T05:13:41.769Z,108.53
2022-08-09T05:14:41.392Z,107.33
2022-08-09T05:15:43.190Z,104.47
2022-08-09T05:16:43.502Z,102.92
2022-08-09T05:18:38.008Z,99.86
2022-08-09T05:18:58.662Z,97.19
2022-08-09T05:19:45.876Z,92.84
2022-08-09T05:20:42.527Z,92.16
2022-08-09T05:21:46.963Z,91.70
2022-08-09T05:23:53.934Z,86.45
2022-08-09T05:23:55.003Z,88.90
2022-08-09T05:24:47.684Z,85.56
2022-08-09T05:25:46.054Z,82.43
2022-08-09T05:25:56.873Z,79.48
2022-08-09T05:26:56.457Z,79.37
2022-08-09T05:27:57.686Z,79.73
2022-08-09T05:28:58.661Z,78.77
2022-08-09T05:29:57.849Z,78.29
2022-08-09T05:30:58.273Z,76.38
2022-08-09T05:31:59.165Z,75.49
2022-08-09T05:32:59.149Z,73.71
2022-08-09T05:34:00.612Z,72.95
2022-08-09T05:35:00.789Z,72.11
2022-08-09T05:36:00.913Z,72.71
2022-08-09T05:37:01.839Z,72.75
2022-08-09T05:38:00.715Z,70.83
2022-08-09T05:39:01.282Z,68.05
2022-08-09T05:40:01.368Z,66.78
2022-08-09T05:41:01.912Z,65.56
2022-08-09T05:42:04.695Z,63.54
2022-08-09T05:43:02.035Z,63.12
2022-08-09T05:44:02.152Z,64.83
2022-08-09T05:45:02.613Z,64.95
2022-08-09T05:46:03.985Z,65.71
2022-08-09T05:47:05.044Z,62.62
2022-08-09T05:48:04.001Z,61.06
2022-08-09T05:49:04.100Z,60.40
2022-08-09T05:50:24.021Z,59.85
2022-08-09T05:51:29.836Z,60.99
2022-08-09T05:52:05.639Z,59.63
2022-08-09T05:52:14.286Z,59.00
2022-08-09T05:53:32.525Z,59.32
2022-08-09T05:54:15.181Z,57.26
2022-08-09T05:55:21.032Z,56.30
2022-08-09T05:56:16.250Z,55.96
2022-08-09T05:57:17.561Z,54.53
2022-08-09T05:58:18.315Z,54.53
2022-08-09T05:59:17.573Z,54.68
2022-08-09T06:00:19.469Z,55.14
2022-08-09T06:01:19.169Z,54.57
2022-08-09T06:02:19.662Z,55.01
2022-08-09T06:03:20.676Z,55.18
2022-08-09T06:04:23.286Z,53.37
2022-08-09T06:05:30.958Z,52.85
2022-08-09T06:06:21.646Z,53.65
2022-08-09T06:07:22.257Z,53.23
2022-08-09T06:08:24.741Z,53.17
2022-08-09T06:09:53.999Z,52.33
2022-08-09T06:10:24.364Z,51.95
2022-08-09T06:11:41.013Z,51.21
2022-08-09T06:12:26.275Z,51.38
2022-08-09T06:13:25.468Z,51.89
2022-08-09T06:14:25.683Z,50.94
2022-08-09T06:15:27.337Z,49.96
2022-08-09T06:16:26.459Z,49.85
2022-08-09T06:17:26.946Z,49.61
2022-08-09T06:18:27.886Z,49.22
2022-08-09T06:19:29.779Z,49.65
2022-08-09T06:20:29.251Z,49.58
2022-08-09T06:20:38.978Z,49.44
2022-08-09T06:21:50.268Z,49.54
2022-08-09T06:22:39.671Z,49.04
2022-08-09T06:23:55.296Z,48.10
2022-08-09T06:24:39.919Z,48.62
2022-08-09T06:25:40.008Z,48.32
2022-08-09T06:26:40.511Z,47.87
2022-08-09T06:27:42.217Z,47.91
2022-08-09T06:28:43.461Z,49.02
2022-08-09T06:29:58.349Z,47.99
2022-08-09T06:30:43.356Z,47.77
2022-08-09T06:32:08.653Z,48.40
2022-08-09T06:32:53.063Z,48.90
2022-08-09T06:33:53.111Z,48.20
2022-08-09T06:34:44.240Z,47.85
2022-08-09T06:35:57.110Z,47.93
2022-08-09T06:36:45.289Z,47.09
2022-08-09T06:37:52.971Z,46.59
2022-08-09T06:38:49.930Z,47.55
2022-08-09T06:39:58.347Z,47.78
2022-08-09T06:40:47.725Z,47.81
2022-08-09T06:42:08.896Z,47.15
2022-08-09T06:42:48.527Z,46.56
2022-08-09T06:43:49.108Z,46.84
2022-08-09T06:44:51.854Z,46.42
2022-08-09T06:46:07.092Z,46.91
2022-08-09T06:46:50.095Z,46.63
2022-08-09T06:48:00.672Z,47.49
2022-08-09T06:48:50.502Z,47.17
2022-08-09T06:50:13.689Z,47.65
2022-08-09T06:50:13.814Z,46.89
2022-08-09T06:51:00.274Z,46.83
2022-08-09T06:52:00.556Z,45.87
2022-08-09T06:53:01.975Z,45.84
2022-08-09T06:54:02.322Z,45.92
2022-08-09T06:55:01.398Z,46.04
2022-08-09T06:56:01.601Z,46.17
2022-08-09T06:57:01.818Z,46.73
2022-08-09T06:58:04.436Z,46.50
2022-08-09T07:00:50.663Z,45.49
2022-08-09T07:00:53.059Z,46.49
2022-08-09T07:01:03.198Z,46.22
2022-08-09T07:02:04.994Z,46.42
2022-08-09T07:03:06.160Z,46.51
2022-08-09T07:04:04.670Z,46.91
2022-08-09T07:05:05.246Z,47.37
2022-08-09T07:06:05.850Z,46.77
2022-08-09T07:07:07.664Z,46.78
2022-08-09T07:08:06.849Z,46.01
2022-08-09T07:09:07.498Z,45.23
2022-08-09T07:10:22.467Z,45.21
2022-08-09T07:11:08.463Z,45.30
2022-08-09T07:12:17.552Z,45.42
2022-08-09T07:13:27.380Z,45.52
2022-08-09T07:14:09.799Z,45.09
2022-08-09T07:16:35.098Z,44.31
2022-08-09T07:16:41.668Z,44.57
2022-08-09T07:17:12.188Z,44.51
2022-08-09T07:17:22.340Z,44.79
2022-08-09T07:18:23.599Z,44.69
2022-08-09T07:19:23.869Z,45.19
2022-08-09T07:20:23.721Z,45.07
2022-08-09T07:21:24.025Z,44.97
2022-08-09T07:22:34.735Z,44.65
2022-08-09T07:23:25.325Z,45.58
2022-08-09T07:24:32.730Z,44.42
2022-08-09T07:25:26.092Z,44.83
2022-08-09T07:26:26.937Z,44.72
2022-08-09T07:27:34.051Z,45.01
2022-08-09T07:28:28.844Z,45.10
2022-08-09T07:29:37.750Z,44.41
2022-08-09T07:30:32.806Z,44.56
2022-08-09T07:31:29.272Z,44.15
2022-08-09T07:32:31.984Z,44.03
2022-08-09T07:33:30.928Z,44.54
2022-08-09T07:34:31.062Z,44.54
2022-08-09T07:35:32.056Z,44.04
2022-08-09T07:36:32.726Z,44.61
2022-08-09T07:37:44.242Z,44.17
2022-08-09T07:38:33.525Z,44.94
2022-08-09T07:39:41.378Z,44.57
2022-08-09T07:40:54.162Z,45.30
2022-08-09T07:41:38.834Z,45.65
2022-08-09T07:42:35.953Z,46.60
2022-08-09T07:43:41.094Z,45.77
2022-08-09T07:44:51.996Z,44.67
2022-08-09T07:45:40.582Z,45.54
2022-08-09T07:46:38.731Z,45.25
2022-08-09T07:47:49.257Z,45.14
2022-08-09T07:48:01.453Z,44.73
2022-08-09T07:48:52.884Z,44.62
2022-08-09T07:50:04.572Z,44.25
2022-08-09T07:50:53.114Z,43.94
2022-08-09T07:52:04.564Z,44.34
2022-08-09T07:52:50.949Z,44.15
2022-08-09T07:54:07.711Z,43.60
2022-08-09T07:54:51.962Z,43.80
2022-08-09T07:56:03.341Z,44.13
2022-08-09T07:56:53.352Z,43.47
2022-08-09T07:57:54.339Z,43.59
2022-08-09T07:58:54.781Z,43.42
2022-08-09T08:00:02.880Z,42.69
2022-08-09T08:01:06.426Z,43.15
2022-08-09T08:01:56.784Z,43.46
2022-08-09T08:02:57.549Z,44.79
2022-08-09T08:03:57.531Z,44.79
2022-08-09T08:04:58.034Z,45.64
2022-08-09T08:05:58.972Z,45.06
2022-08-09T08:07:00.082Z,45.22
2022-08-09T08:08:43.575Z,44.95
2022-08-09T08:09:07.771Z,45.42
2022-08-09T08:10:07.938Z,44.98
2022-08-09T08:11:03.357Z,44.61
2022-08-09T08:12:11.149Z,44.49
2022-08-09T08:13:03.855Z,43.85
2022-08-09T08:14:04.754Z,44.79
2022-08-09T08:15:03.637Z,45.61
2022-08-09T08:16:03.896Z,46.94
2022-08-09T08:17:08.672Z,46.37
2022-08-09T08:18:05.357Z,47.51
2022-08-09T08:18:16.614Z,48.01
2022-08-09T08:19:17.508Z,47.92
2022-08-09T08:20:17.381Z,48.27
2022-08-09T08:21:18.138Z,48.44
2022-08-09T08:22:18.710Z,48.78
2022-08-09T08:23:19.105Z,48.93
2022-08-09T08:24:19.965Z,48.77
2022-08-09T08:25:20.199Z,48.82
2022-08-09T08:26:41.676Z,49.20
2022-08-09T08:27:21.325Z,48.99
2022-08-09T08:28:31.803Z,49.58
2022-08-09T08:29:28.206Z,49.59
2022-08-09T08:30:22.492Z,49.71
2022-08-09T08:31:24.566Z,49.67
2022-08-09T08:32:29.179Z,50.58
2022-08-09T08:33:24.239Z,51.11
2022-08-09T08:34:25.657Z,50.23
2022-08-09T08:35:23.913Z,49.81
2022-08-09T08:36:29.276Z,50.88
2022-08-09T08:37:25.659Z,50.61
2022-08-09T08:38:25.807Z,51.05
2022-08-09T08:39:26.663Z,51.75
2022-08-09T08:40:29.641Z,50.52
2022-08-09T08:41:50.557Z,50.83
2022-08-09T08:42:32.055Z,51.69
2022-08-09T08:43:29.006Z,50.96
2022-08-09T08:44:29.861Z,50.81
2022-08-09T08:45:36.827Z,50.52
2022-08-09T08:46:33.634Z,51.52
2022-08-09T08:47:32.089Z,53.18
2022-08-09T08:47:42.614Z,52.53
2022-08-09T08:48:51.533Z,52.46
2022-08-09T08:49:48.501Z,52.26
2022-08-09T08:50:42.056Z,51.86
2022-08-09T08:52:01.936Z,51.30
2022-08-09T08:53:00.452Z,51.01
2022-08-09T08:54:03.304Z,51.05
2022-08-09T08:54:43.550Z,51.17
2022-08-09T08:55:44.414Z,51.27
2022-08-09T08:56:45.991Z,51.17
2022-08-09T08:57:57.189Z,51.83
2022-08-09T08:58:46.633Z,51.72
2022-08-09T08:59:47.308Z,51.02
2022-08-09T09:00:46.553Z,51.63
2022-08-09T09:01:52.227Z,51.68
2022-08-09T09:02:52.393Z,52.22
2022-08-09T09:03:50.392Z,51.70
2022-08-09T09:04:53.033Z,51.28
2022-08-09T09:05:59.089Z,51.74
2022-08-09T09:06:50.660Z,50.98
2022-08-09T09:07:51.505Z,51.47
2022-08-09T09:08:02.784Z,51.28
2022-08-09T09:09:06.712Z,51.19
2022-08-09T09:10:04.925Z,50.79
2022-08-09T09:11:04.409Z,50.96
2022-08-09T09:12:08.862Z,51.37
2022-08-09T09:13:09.533Z,51.71
2022-08-09T09:14:05.779Z,51.64
2022-08-09T09:15:06.427Z,52.18
2022-08-09T09:16:07.043Z,51.93
2022-08-09T09:17:06.034Z,51.55
2022-08-09T09:18:06.948Z,51.32
2022-08-09T09:19:39.632Z,50.90
2022-08-09T09:21:53.816Z,51.96
2022-08-09T09:22:54.492Z,50.22
2022-08-09T09:23:58.433Z,51.20
2022-08-09T09:26:01.105Z,50.64
2022-08-09T09:26:02.377Z,50.36
2022-08-09T09:26:57.145Z,50.77
2022-08-09T09:28:05.361Z,50.84
2022-08-09T09:29:03.702Z,51.11
2022-08-09T09:30:11.968Z,51.66
2022-08-09T09:30:58.284Z,51.75
2022-08-09T09:32:04.645Z,51.66
2022-08-09T09:32:58.678Z,51.18
2022-08-09T09:33:59.224Z,51.87
2022-08-09T09:35:00.453Z,52.15
2022-08-09T09:36:01.948Z,51.35
2022-08-09T09:36:59.714Z,52.18
2022-08-09T09:37:08.857Z,51.53
2022-08-09T09:38:08.793Z,51.56
2022-08-09T09:39:09.975Z,51.29
2022-08-09T09:40:10.044Z,51.30
2022-08-09T09:41:10.801Z,51.30
2022-08-09T09:42:10.950Z,51.17
2022-08-09T09:43:11.106Z,51.61
2022-08-09T09:44:15.479Z,51.20
2022-08-09T09:45:14.391Z,50.88
2022-08-09T09:47:12.509Z,50.14
2022-08-09T09:48:12.597Z,49.85
2022-08-09T09:49:12.732Z,50.18
2022-08-09T09:50:17.293Z,51.18
2022-08-09T09:51:18.834Z,50.34
2022-08-09T09:52:35.676Z,50.86
2022-08-09T09:53:14.344Z,50.19
2022-08-09T09:54:42.459Z,49.36
2022-08-09T09:55:43.093Z,49.34
2022-08-09T09:56:53.366Z,49.43
2022-08-09T09:58:01.333Z,49.28
2022-08-09T09:58:45.033Z,49.58
2022-08-09T09:59:45.578Z,49.42
2022-08-09T10:00:53.012Z,50.01
2022-08-09T10:01:47.371Z,50.02
2022-08-09T10:02:46.150Z,49.38
2022-08-09T10:03:56.275Z,50.68
2022-08-09T10:04:47.646Z,50.08
2022-08-09T10:06:03.647Z,49.24
2022-08-09T10:06:51.785Z,49.60
2022-08-09T10:08:11.088Z,49.53
2022-08-09T10:08:57.235Z,49.74
2022-08-09T10:09:55.054Z,49.99
2022-08-09T10:10:50.542Z,49.14
2022-08-09T10:12:07.701Z,48.83
2022-08-09T10:12:52.061Z,48.98
2022-08-09T10:13:51.744Z,47.90
2022-08-09T10:14:52.468Z,47.96
2022-08-09T10:16:54.643Z,47.90
2022-08-09T10:16:57.835Z,47.46
2022-08-09T10:17:56.582Z,47.55
2022-08-09T10:18:54.718Z,47.75
2022-08-09T10:19:57.090Z,47.59
2022-08-09T10:20:57.118Z,46.95
2022-08-09T10:21:57.930Z,47.12
2022-08-09T10:22:07.597Z,47.02
2022-08-09T10:23:08.297Z,46.97
2022-08-09T10:24:08.895Z,47.10
2022-08-09T10:25:12.419Z,47.33
2022-08-09T10:26:10.552Z,47.47
2022-08-09T10:27:17.253Z,46.05
2022-08-09T10:28:11.089Z,46.62
2022-08-09T10:29:35.974Z,45.96
2022-08-09T10:31:31.720Z,46.06
2022-08-09T10:32:38.043Z,45.93
2022-08-09T10:33:44.845Z,45.65
2022-08-09T10:34:32.902Z,45.18
2022-08-09T10:35:14.693Z,45.37
2022-08-09T10:36:15.446Z,45.02
2022-08-09T10:37:15.451Z,46.41
2022-08-09T10:38:54.261Z,46.25
2022-08-09T10:39:19.162Z,45.90
2022-08-09T10:40:34.704Z,46.01
2022-08-09T10:41:17.819Z,45.97
2022-08-09T10:42:53.382Z,45.39
2022-08-09T10:43:59.211Z,45.30
2022-08-09T10:44:53.946Z,45.26
2022-08-09T10:45:59.859Z,44.89
2022-08-09T10:47:00.527Z,44.78
2022-08-09T10:48:26.292Z,44.08
2022-08-09T10:48:56.097Z,43.96
2022-08-09T10:49:57.200Z,45.21
2022-08-09T10:50:56.532Z,44.20
2022-08-09T10:51:57.368Z,44.65
2022-08-09T10:52:58.231Z,42.85
2022-08-09T10:53:58.307Z,43.35
2022-08-09T10:54:59.171Z,44.09
2022-08-09T10:56:00.183Z,43.50
2022-08-09T10:56:59.994Z,43.46
2022-08-09T10:58:00.737Z,44.09
2022-08-09T10:58:16.787Z,44.04
2022-08-09T10:59:12.533Z,43.87
2022-08-09T11:00:12.702Z,43.74
2022-08-09T11:03:13.711Z,44.13
2022-08-09T11:03:15.188Z,43.28
2022-08-09T11:03:51.203Z,43.26
2022-08-09T11:04:27.817Z,43.13
2022-08-09T11:05:25.499Z,43.75
2022-08-09T11:06:17.742Z,43.61
2022-08-09T11:07:19.596Z,43.15
2022-08-09T11:08:30.238Z,43.02
2022-08-09T11:09:20.965Z,43.45
2022-08-09T11:10:19.995Z,42.82
2022-08-09T11:11:20.613Z,43.13
2022-08-09T11:12:20.806Z,43.59
2022-08-09T11:13:51.106Z,43.71
2022-08-09T11:14:28.276Z,42.82
2022-08-09T11:15:24.031Z,42.84
2022-08-09T11:16:04.892Z,43.44
2022-08-09T11:16:40.865Z,43.49
2022-08-09T11:17:41.959Z,42.51
2022-08-09T11:18:41.085Z,41.67
2022-08-09T11:20:11.022Z,42.38
2022-08-09T11:20:43.519Z,42.50
2022-08-09T11:21:43.335Z,42.70
2022-08-09T11:22:44.738Z,43.28
2022-08-09T11:23:47.529Z,42.25
2022-08-09T11:24:45.063Z,42.46
2022-08-09T11:25:48.488Z,42.30
2022-08-09T11:26:47.425Z,42.64
2022-08-09T11:28:04.399Z,42.56
2022-08-09T11:28:56.499Z,43.57
2022-08-09T11:30:05.097Z,42.28
2022-08-09T11:30:48.000Z,42.37
2022-08-09T11:31:49.213Z,41.52
2022-08-09T11:32:48.593Z,41.79
2022-08-09T11:33:50.262Z,41.50
2022-08-09T11:34:02.290Z,42.18
2022-08-09T11:35:03.144Z,42.07
2022-08-09T11:36:04.951Z,41.86
2022-08-09T11:37:07.213Z,42.51
2022-08-09T11:38:04.585Z,41.41
2022-08-09T11:39:04.622Z,41.98
2022-08-09T11:40:04.811Z,41.78
2022-08-09T11:41:05.410Z,42.63
2022-08-09T11:42:07.377Z,42.73
2022-08-09T11:43:07.138Z,43.09
2022-08-09T11:44:07.536Z,42.36
2022-08-09T11:45:08.384Z,42.76
2022-08-09T11:46:09.704Z,43.34
2022-08-09T11:47:10.964Z,41.73
2022-08-09T11:48:17.487Z,41.49
2022-08-09T11:49:10.083Z,41.04
2022-08-09T11:50:56.141Z,40.63
2022-08-09T11:52:56.991Z,40.88
2022-08-09T11:53:04.280Z,40.56
2022-08-09T11:53:57.732Z,40.81
2022-08-09T11:54:13.697Z,41.14
2022-08-09T11:55:12.952Z,41.17
2022-08-09T11:56:14.167Z,40.79
2022-08-09T11:57:13.693Z,40.91
2022-08-09T11:58:14.080Z,40.82
2022-08-09T11:58:32.973Z,40.28
2022-08-09T11:59:30.594Z,40.31
2022-08-09T12:00:29.818Z,40.82
2022-08-09T12:01:37.680Z,41.04
2022-08-09T12:02:36.980Z,40.83
2022-08-09T12:03:55.909Z,40.28
2022-08-09T12:04:37.626Z,40.18
2022-08-09T12:05:37.131Z,39.94
2022-08-09T12:06:34.890Z,39.83
2022-08-09T12:07:34.533Z,39.64
2022-08-09T12:08:32.886Z,40.24
2022-08-09T12:09:33.812Z,39.89
2022-08-09T12:10:39.676Z,38.96
2022-08-09T12:11:44.487Z,39.23
2022-08-09T12:12:35.489Z,39.59
2022-08-09T12:14:06.950Z,39.72
2022-08-09T12:14:59.057Z,39.35
2022-08-09T12:15:49.919Z,39.28
2022-08-09T12:16:39.853Z,39.19
2022-08-09T12:17:44.593Z,39.40
2022-08-09T12:18:39.531Z,39.35
2022-08-09T12:19:40.067Z,39.29
2022-08-09T12:20:39.472Z,39.22
2022-08-09T12:20:51.842Z,38.98
2022-08-09T12:21:52.594Z,39.05
2022-08-09T12:22:55.793Z,39.89
2022-08-09T12:24:02.621Z,38.46
2022-08-09T12:24:54.963Z,38.43
2022-08-09T12:25:56.790Z,38.03
2022-08-09T12:28:59.681Z,38.41
2022-08-09T12:29:14.549Z,38.84
2022-08-09T12:29:14.885Z,38.41
2022-08-09T12:30:01.427Z,39.21
2022-08-09T12:30:58.795Z,38.56
2022-08-09T12:32:03.159Z,38.71
2022-08-09T12:33:00.612Z,38.47
2022-08-09T12:34:01.588Z,38.00
2022-08-09T12:35:02.798Z,38.19
2022-08-09T12:36:02.504Z,38.50
2022-08-09T12:37:21.711Z,38.87